createdAt,value
2023-03-23T15:58:12.496Z,18.00
2023-03-23T16:00:40.750Z,18.20
2023-03-23T16:03:11.776Z,18.00
2023-03-23T16:05:39.024Z,18.00
2023-03-23T16:08:06.938Z,18.00
2023-03-23T16:10:34.162Z,18.00
2023-03-23T16:13:01.421Z,17.90
2023-03-23T16:15:28.976Z,17.90
2023-03-23T16:17:56.705Z,17.80
2023-03-23T16:20:24.306Z,17.80
2023-03-23T16:22:52.288Z,17.70
2023-03-23T16:25:19.929Z,17.60
2023-03-23T16:27:52.605Z,17.50
2023-03-23T16:30:26.498Z,17.50
2023-03-23T16:32:55.468Z,17.50
2023-03-23T16:35:23.855Z,17.30
2023-03-23T16:38:08.256Z,17.40
2023-03-23T16:40:40.802Z,17.30
2023-03-23T16:43:09.546Z,17.20
2023-03-23T16:45:43.738Z,17.10
2023-03-23T16:48:11.663Z,17.10
2023-03-23T16:50:39.200Z,17.00
2023-03-23T16:53:08.456Z,17.00
2023-03-23T16:55:37.274Z,16.90
2023-03-23T16:58:16.441Z,16.80
2023-03-23T17:00:49.543Z,16.80
2023-03-23T17:03:18.389Z,16.80
2023-03-23T17:05:46.491Z,16.70
2023-03-23T17:08:14.335Z,16.70
2023-03-23T17:10:44.047Z,16.60
2023-03-23T17:13:11.534Z,16.40
2023-03-23T17:15:45.874Z,16.40
2023-03-23T17:18:14.697Z,16.30
2023-03-23T17:20:42.014Z,16.20
2023-03-23T17:23:09.405Z,16.10
2023-03-23T17:25:36.792Z,16.00
2023-03-23T17:28:05.343Z,15.80
2023-03-23T17:30:33.586Z,15.70
2023-03-23T17:33:00.978Z,15.60
2023-03-23T17:35:28.511Z,15.50
2023-03-23T17:37:55.986Z,15.50
2023-03-23T17:40:23.359Z,15.40
2023-03-23T17:42:50.876Z,15.30
2023-03-23T17:45:18.332Z,15.10
2023-03-23T17:47:45.717Z,14.80
2023-03-23T17:50:13.303Z,14.80
2023-03-23T17:52:41.835Z,14.80
2023-03-23T17:55:09.316Z,14.60
2023-03-23T17:57:36.578Z,14.40
2023-03-23T18:00:07.704Z,14.30
2023-03-23T18:02:36.307Z,14.30
2023-03-23T18:05:04.084Z,14.20
2023-03-23T18:07:33.470Z,14.10
2023-03-23T18:10:01.200Z,14.10
2023-03-23T18:12:28.527Z,14.10
2023-03-23T18:14:58.911Z,14.10
2023-03-23T18:17:26.936Z,14.10
2023-03-23T18:19:54.795Z,14.10
2023-03-23T18:22:22.151Z,14.00
2023-03-23T18:24:49.552Z,14.00
2023-03-23T18:27:17.577Z,14.00
2023-03-23T18:29:45.097Z,14.00
2023-03-23T18:32:12.674Z,14.00
2023-03-23T18:34:41.967Z,13.80
2023-03-23T18:37:09.474Z,13.80
2023-03-23T18:39:38.166Z,13.80
2023-03-23T18:42:06.616Z,13.80
2023-03-23T18:44:34.303Z,13.70
2023-03-23T18:47:01.629Z,13.70
2023-03-23T18:49:29.285Z,13.70
2023-03-23T18:51:56.871Z,13.70
2023-03-23T18:54:24.400Z,13.70
2023-03-23T18:56:52.147Z,13.70
2023-03-23T18:59:19.615Z,13.70
2023-03-23T19:01:47.053Z,13.60
2023-03-23T19:04:14.902Z,13.60
2023-03-23T19:06:42.397Z,13.40
2023-03-23T19:09:09.579Z,13.30
2023-03-23T19:11:36.821Z,13.40
2023-03-23T19:14:04.485Z,13.50
2023-03-23T19:16:33.095Z,13.40
2023-03-23T19:19:03.784Z,13.40
2023-03-23T19:21:32.047Z,13.40
2023-03-23T19:24:00.277Z,13.40
2023-03-23T19:26:35.807Z,13.50
2023-03-23T19:29:26.050Z,13.40
2023-03-23T19:31:55.041Z,13.40
2023-03-23T19:34:22.290Z,13.40
2023-03-23T19:36:55.272Z,13.30
2023-03-23T19:39:31.329Z,13.10
2023-03-23T19:41:59.069Z,13.20
2023-03-23T19:44:26.704Z,13.20
2023-03-23T19:46:56.267Z,13.20
2023-03-23T19:49:24.677Z,13.30
2023-03-23T19:52:06.432Z,13.20
2023-03-23T19:54:36.820Z,13.20
2023-03-23T19:57:04.302Z,13.10
2023-03-23T19:59:31.822Z,13.10
2023-03-23T20:01:59.226Z,13.20
2023-03-23T20:04:27.592Z,13.10
2023-03-23T20:06:56.880Z,13.00
2023-03-23T20:09:25.297Z,13.00
2023-03-23T20:11:53.722Z,13.00
2023-03-23T20:14:21.079Z,13.00
2023-03-23T20:16:48.515Z,12.80
2023-03-23T20:19:16.612Z,12.90
2023-03-23T20:21:43.912Z,12.90
2023-03-23T20:24:12.048Z,12.80
2023-03-23T20:26:42.425Z,12.80
2023-03-23T20:29:09.968Z,12.70
2023-03-23T20:31:39.934Z,12.70
2023-03-23T20:34:12.217Z,12.70
2023-03-23T20:36:45.453Z,12.70
2023-03-23T20:39:16.447Z,12.70
2023-03-23T20:41:44.014Z,12.70
2023-03-23T20:44:14.379Z,12.80
2023-03-23T20:46:48.665Z,12.80
2023-03-23T20:49:16.487Z,12.80
2023-03-23T20:51:45.082Z,12.80
2023-03-23T20:54:14.445Z,12.80
2023-03-23T20:56:43.049Z,12.70
2023-03-23T20:59:11.295Z,12.80
2023-03-23T21:01:40.201Z,12.60
2023-03-23T21:04:15.799Z,12.50
2023-03-23T21:06:44.234Z,12.60
2023-03-23T21:09:12.094Z,12.70
2023-03-23T21:11:39.601Z,12.60
2023-03-23T21:14:07.122Z,12.70
2023-03-23T21:16:34.649Z,12.50
2023-03-23T21:19:03.320Z,12.50
2023-03-23T21:21:30.717Z,12.50
2023-03-23T21:23:58.318Z,12.50
2023-03-23T21:26:28.196Z,12.40
2023-03-23T21:29:00.317Z,12.30
2023-03-23T21:31:33.425Z,12.20
2023-03-23T21:34:01.228Z,12.20
2023-03-23T21:36:28.635Z,12.20
2023-03-23T21:38:56.490Z,12.10
2023-03-23T21:41:24.278Z,12.00
2023-03-23T21:43:51.889Z,12.00
2023-03-23T21:46:19.307Z,12.00
2023-03-23T21:48:51.630Z,12.00
2023-03-23T21:51:29.189Z,12.00
2023-03-23T21:53:56.945Z,11.90
2023-03-23T21:56:27.645Z,11.80
2023-03-23T21:58:55.957Z,11.80
2023-03-23T22:01:23.533Z,11.70
2023-03-23T22:03:51.253Z,11.70
2023-03-23T22:06:25.172Z,11.70
2023-03-23T22:08:52.768Z,11.60
2023-03-23T22:11:25.239Z,11.70
2023-03-23T22:13:53.437Z,11.60
2023-03-23T22:16:21.525Z,11.70
2023-03-23T22:18:49.516Z,11.60
2023-03-23T22:21:17.631Z,11.60
2023-03-23T22:23:45.236Z,11.60
2023-03-23T22:26:13.027Z,11.80
2023-03-23T22:28:40.598Z,11.70
2023-03-23T22:31:12.315Z,11.60
2023-03-23T22:33:40.358Z,11.50
2023-03-23T22:36:08.246Z,11.50
2023-03-23T22:38:37.154Z,11.50
2023-03-23T22:41:07.177Z,11.50
2023-03-23T22:43:35.696Z,11.50
2023-03-23T22:46:03.577Z,11.40
2023-03-23T22:48:31.155Z,11.40
2023-03-23T22:50:58.659Z,11.40
2023-03-23T22:53:26.389Z,11.50
2023-03-23T22:55:55.659Z,11.50
2023-03-23T22:58:23.640Z,11.30
2023-03-23T23:00:56.620Z,11.40
2023-03-23T23:03:24.344Z,11.40
2023-03-23T23:05:52.596Z,11.50
2023-03-23T23:08:20.358Z,11.50
2023-03-23T23:10:49.665Z,11.40
2023-03-23T23:13:17.045Z,11.50
2023-03-23T23:15:47.667Z,11.40
2023-03-23T23:18:15.069Z,11.50
2023-03-23T23:20:42.463Z,11.50
2023-03-23T23:23:09.922Z,11.50
2023-03-23T23:25:38.404Z,11.50
2023-03-23T23:28:06.215Z,11.40
2023-03-23T23:30:34.276Z,11.40
2023-03-23T23:33:02.115Z,11.40
2023-03-23T23:35:29.887Z,11.30
2023-03-23T23:37:57.304Z,11.40
2023-03-23T23:40:24.678Z,11.30
2023-03-23T23:42:52.255Z,11.30
2023-03-23T23:45:19.677Z,11.30
2023-03-23T23:47:47.087Z,11.20
2023-03-23T23:50:15.245Z,11.20
2023-03-23T23:52:45.140Z,11.10
2023-03-23T23:55:13.873Z,11.10
2023-03-23T23:57:41.443Z,11.10
